• Join FlightAware (Why Join?)
  • Login
  • US Flag 
07:03PM EST


 

Airport Tracker/Info


-or-


 

Live Flight TrackerFlight Track Log ✈ EJA396 ✈ 01-Oct-2013 ✈ KASE - KJAC

Flight Track Log - Related Links

Times and Time Zones

All times are in EDT time to prevent confusion due to time zone crossing. See the EJA396 flight status page for this flight to view local times or setup timezone preferences in your user account.

Time Position Orientation Groundspeed Altitude Reporting Facility
EDT Latitude Longitude Course Direction KTS MPH feet Rate Location/Type
10:00AM 39.2639 -106.8781 291° West 215 247 9,600  Level Denver Center
10:01AM 39.2883 -106.9614 291° West 269 310 13,400 3,780 Climbing Denver Center
10:02AM 39.3189 -107.0581 292° West 294 338 17,400 3,660 Climbing Denver Center
10:03AM 39.3719 -107.1319 313° West 295 339 20,900 3,300 Climbing Denver Center
10:04AM 39.4381 -107.2150 316° Northwest 297 342 24,200 2,940 Climbing Denver Center
10:05AM 39.5042 -107.2889 319° Northwest 318 366 27,000 2,820 Climbing Denver Center
10:06AM 39.5831 -107.3772 319° Northwest 332 382 30,000 1,440 Climbing Denver Center
10:07AM 39.6567 -107.4617 319° Northwest 355 409 30,000  Level Denver Center
10:08AM 39.7636 -107.5781 320° Northwest 438 504 30,000  Level Denver Center
10:09AM 39.8544 -107.6808 319° Northwest 450 518 30,000  Level Denver Center
10:10AM 39.9461 -107.7844 319° Northwest 455 524 30,000  Level Denver Center
10:11AM 40.0511 -107.9036 319° Northwest 452 520 30,000  Level Denver Center
10:12AM 40.1558 -107.9850 329° Northwest 455 524 30,000  Level Denver Center
10:13AM 40.2808 -108.0733 332° Northwest 459 528 30,000  Level Denver Center
10:14AM 40.3875 -108.1486 332° Northwest 457 526 30,000  Level Denver Center
10:15AM 40.5119 -108.2369 332° Northwest 456 525 30,000  Level Denver Center
10:16AM 40.6181 -108.3128 332° Northwest 457 526 30,000  Level Denver Center
10:17AM 40.7417 -108.3992 332° Northwest 453 521 30,000  Level Denver Center
10:18AM 40.8494 -108.4769 331° Northwest 453 521 30,000  Level Denver Center
10:19AM 40.9550 -108.5536 331° Northwest 454 522 30,000  Level Salt Lake Center
10:20AM 41.0617 -108.6292 332° Northwest 455 524 30,000  Level Salt Lake Center
10:21AM 41.1853 -108.7167 332° Northwest 452 520 30,000  Level Salt Lake Center
10:22AM 41.2903 -108.7922 332° Northwest 450 518 30,000  Level Salt Lake Center
10:23AM 41.3947 -108.8683 331° Northwest 450 518 30,000  Level Salt Lake Center
10:24AM 41.5153 -108.9547 332° Northwest 450 518 30,000  Level Salt Lake Center
10:25AM 41.6344 -109.0417 331° Northwest 445 512 30,000  Level Salt Lake Center
10:26AM 41.7361 -109.1175 331° Northwest 443 510 30,000  Level Salt Lake Center
10:27AM 41.8403 -109.1931 332° Northwest 444 511 30,000  Level Salt Lake Center
10:29AM 41.9606 -109.2825 331° Northwest 445 512 30,000  Level Salt Lake Center
10:30AM 42.0628 -109.3589 331° Northwest 442 509 30,000  Level Salt Lake Center
10:31AM 42.1842 -109.4489 331° Northwest 444 511 30,000  Level Salt Lake Center
10:32AM 42.2872 -109.5267 331° Northwest 445 512 30,000  Level Salt Lake Center
10:33AM 42.4072 -109.6161 331° Northwest 443 510 30,000  Level Salt Lake Center
10:34AM 42.5106 -109.6933 331° Northwest 443 510 30,000  Level Salt Lake Center
10:35AM 42.6308 -109.7847 331° Northwest 442 509 30,000  Level Salt Lake Center
10:36AM 42.7333 -109.8614 331° Northwest 441 507 30,000 -300 Level Salt Lake Center
10:37AM 42.8506 -109.9492 331° Northwest 441 507 29,500 -1,260 Descending Salt Lake Center
10:38AM 42.9422 -110.0217 330° Northwest 399 459 27,500 -1,860 Descending Salt Lake Center
10:39AM 43.0228 -110.0831 331° Northwest 352 405 25,700 -1,860 Descending Salt Lake Center
10:40AM 43.1131 -110.1517 331° Northwest 335 386 23,700 -1,800 Descending Salt Lake Center
10:41AM 43.1928 -110.2131 331° Northwest 341 392 22,000 -1,920 Descending Salt Lake Center
10:42AM 43.2889 -110.2839 332° Northwest 342 394 19,800 -2,040 Descending Salt Lake Center
10:43AM 43.3722 -110.3489 330° Northwest 344 396 17,900 -1,920 Descending Salt Lake Center
10:44AM 43.4556 -110.4139 330° Northwest 345 397 15,900 -1,800 Descending Salt Lake Center
10:45AM 43.5339 -110.4750 331° Northwest 331 381 14,200 -1,020 Descending Salt Lake Center
10:46AM 43.6089 -110.5297 332° Northwest 314 361 13,900 -420 Descending Salt Lake Center
10:47AM 43.6786 -110.5786 333° Northwest 292 336 13,400 -1,800 Descending Salt Lake Center
10:48AM 43.7319 -110.6547 314° West 259 298 10,200 -2,160 Descending Salt Lake Center
10:49AM 43.6867 -110.6981 215° Southwest 219 252 9,000 -1,320 Descending Salt Lake Center
10:50AM 43.6492 -110.7178 201° Southwest 172 198 7,500 -1,260 Descending Salt Lake Center
10:51AM 43.6183 -110.7322 199° South 136 157 6,500 -1,020 Descending Salt Lake Center